createdAt,value
2018-12-08T00:00:58.431Z,87.52
2018-12-08T00:03:41.293Z,86.86
2018-12-08T00:06:24.102Z,87.17
2018-12-08T00:09:10.501Z,87.28
2018-12-08T00:11:53.083Z,86.82
2018-12-08T00:14:35.098Z,86.10
2018-12-08T00:17:18.604Z,86.87
2018-12-08T00:20:03.074Z,86.24
2018-12-08T00:22:44.970Z,86.52
2018-12-08T00:25:28.299Z,85.25
2018-12-08T00:28:10.683Z,85.08
2018-12-08T00:31:03.977Z,85.57
2018-12-08T00:33:46.818Z,85.69
2018-12-08T00:36:30.506Z,84.93
2018-12-08T00:39:15.093Z,86.02
2018-12-08T00:41:58.030Z,86.04
2018-12-08T00:44:42.218Z,86.43
2018-12-08T00:47:26.669Z,85.46
2018-12-08T00:50:09.622Z,86.32
2018-12-08T00:52:53.326Z,86.88
2018-12-08T00:55:36.112Z,87.10
2018-12-08T00:58:18.815Z,86.95
2018-12-08T01:01:01.882Z,86.86
2018-12-08T01:03:44.699Z,86.60
2018-12-08T01:06:27.743Z,86.11
2018-12-08T01:09:10.100Z,86.36
2018-12-08T01:11:52.248Z,85.49
2018-12-08T01:14:35.045Z,86.10
2018-12-08T01:17:18.287Z,85.54
2018-12-08T01:20:01.501Z,85.57
2018-12-08T01:22:43.994Z,86.24
2018-12-08T01:25:25.959Z,85.49
2018-12-08T01:28:09.072Z,85.71
2018-12-08T01:30:51.164Z,86.82
2018-12-08T01:33:33.981Z,88.04
2018-12-08T01:36:16.926Z,89.24
2018-12-08T01:38:59.726Z,90.07
2018-12-08T01:41:42.597Z,89.73
2018-12-08T01:44:25.759Z,89.99
2018-12-08T01:47:08.515Z,89.32
2018-12-08T01:49:51.523Z,88.26
2018-12-08T01:52:36.014Z,87.23
2018-12-08T01:55:18.703Z,86.92
2018-12-08T01:58:00.908Z,86.58
2018-12-08T02:00:43.692Z,85.19
2018-12-08T02:03:26.739Z,85.23
2018-12-08T02:06:09.760Z,84.80
2018-12-08T02:08:52.591Z,84.89
2018-12-08T02:11:35.026Z,84.43
2018-12-08T02:14:17.366Z,84.51
2018-12-08T02:16:59.704Z,83.94
2018-12-08T02:19:41.886Z,84.71
2018-12-08T02:22:24.677Z,84.02
2018-12-08T02:25:07.939Z,84.10
2018-12-08T02:27:50.753Z,83.85
2018-12-08T02:30:33.582Z,84.60
2018-12-08T02:33:16.216Z,82.77
2018-12-08T02:35:58.327Z,82.80
2018-12-08T02:38:42.230Z,83.13
2018-12-08T02:41:24.781Z,82.52
2018-12-08T02:44:06.764Z,82.82
2018-12-08T02:46:50.050Z,82.42
2018-12-08T02:49:32.046Z,82.57
2018-12-08T02:52:14.733Z,82.46
2018-12-08T02:54:58.811Z,82.37
2018-12-08T02:57:42.062Z,82.81
2018-12-08T03:00:24.636Z,81.62
2018-12-08T03:03:07.473Z,81.56
2018-12-08T03:05:49.628Z,82.53
2018-12-08T03:08:32.438Z,82.77
2018-12-08T03:11:15.450Z,82.36
2018-12-08T03:13:58.124Z,82.16
2018-12-08T03:16:42.063Z,82.36
2018-12-08T03:19:25.264Z,82.23
2018-12-08T03:22:08.133Z,82.75
2018-12-08T03:24:51.683Z,82.32
2018-12-08T03:27:35.419Z,82.33
2018-12-08T03:30:17.980Z,81.30
2018-12-08T03:33:01.138Z,81.80
2018-12-08T03:35:44.179Z,81.40
2018-12-08T03:38:28.096Z,81.73
2018-12-08T03:41:10.879Z,82.42
2018-12-08T03:43:53.729Z,82.34
2018-12-08T03:46:36.557Z,81.83
2018-12-08T03:49:19.064Z,81.50
2018-12-08T03:52:01.375Z,81.25
2018-12-08T03:54:44.511Z,81.81
2018-12-08T03:57:26.449Z,81.71
2018-12-08T04:00:09.616Z,81.57
2018-12-08T04:02:51.264Z,82.13
2018-12-08T04:05:35.428Z,81.43
2018-12-08T04:08:18.084Z,81.82
2018-12-08T04:11:00.902Z,81.50
2018-12-08T04:13:44.312Z,82.24
2018-12-08T04:16:26.859Z,81.67
2018-12-08T04:19:08.826Z,81.75
2018-12-08T04:21:51.986Z,81.61
2018-12-08T04:24:34.284Z,81.82
2018-12-08T04:27:16.745Z,82.40
2018-12-08T04:29:59.467Z,82.20
2018-12-08T04:32:41.804Z,82.76
2018-12-08T04:35:24.497Z,82.53
2018-12-08T04:38:07.220Z,82.10
2018-12-08T04:40:49.581Z,81.70
2018-12-08T04:43:32.200Z,81.58
2018-12-08T04:46:15.311Z,81.44
2018-12-08T04:48:57.515Z,81.02
2018-12-08T04:51:41.006Z,82.00
2018-12-08T04:54:24.142Z,83.45
2018-12-08T04:57:08.894Z,86.04
2018-12-08T04:59:50.790Z,87.44
2018-12-08T05:02:33.415Z,87.73
2018-12-08T05:05:16.813Z,88.56
2018-12-08T05:07:59.722Z,89.32
2018-12-08T05:10:42.271Z,88.85
2018-12-08T05:13:25.273Z,89.23
2018-12-08T05:16:08.343Z,88.62
2018-12-08T05:18:50.535Z,88.06
2018-12-08T05:21:33.895Z,88.31
2018-12-08T05:24:18.189Z,88.52
2018-12-08T05:27:01.478Z,89.25
2018-12-08T05:29:44.125Z,89.82
2018-12-08T05:32:26.847Z,90.23
2018-12-08T05:35:09.242Z,89.92
2018-12-08T05:37:52.238Z,90.31
2018-12-08T05:40:35.197Z,89.83
2018-12-08T05:43:17.205Z,89.58
2018-12-08T05:46:01.605Z,90.26
2018-12-08T05:48:43.775Z,90.46
2018-12-08T05:51:25.839Z,90.67
2018-12-08T05:54:08.463Z,90.39
2018-12-08T05:56:51.589Z,90.42
2018-12-08T05:59:34.067Z,90.36
2018-12-08T06:02:16.611Z,90.27
2018-12-08T06:04:59.936Z,89.53
2018-12-08T06:07:42.537Z,88.26
2018-12-08T06:10:26.139Z,87.65
2018-12-08T06:13:09.401Z,86.97
2018-12-08T06:15:52.002Z,86.02
2018-12-08T06:18:35.074Z,86.13
2018-12-08T06:21:17.971Z,86.58
2018-12-08T06:24:01.503Z,86.22
2018-12-08T06:26:57.325Z,87.20
2018-12-08T06:29:40.483Z,89.15
2018-12-08T06:32:23.623Z,90.86
2018-12-08T06:38:50.355Z,91.60
2018-12-08T06:41:32.184Z,90.80
2018-12-08T06:44:13.981Z,90.63
2018-12-08T06:46:55.760Z,90.16
2018-12-08T06:49:38.194Z,90.29
2018-12-08T06:52:21.268Z,89.89
2018-12-08T06:55:03.167Z,90.09
2018-12-08T06:57:44.351Z,90.16
2018-12-08T07:00:26.405Z,89.64
2018-12-08T07:03:08.823Z,90.24
2018-12-08T07:05:51.886Z,89.80
2018-12-08T07:08:34.347Z,89.72
2018-12-08T07:11:16.129Z,90.53
2018-12-08T07:13:57.783Z,90.07
2018-12-08T07:16:40.496Z,90.11
2018-12-08T07:19:22.680Z,90.05
2018-12-08T07:22:05.433Z,90.07
2018-12-08T07:24:48.270Z,90.36
2018-12-08T07:27:30.473Z,89.74
2018-12-08T07:30:12.580Z,89.92
2018-12-08T07:32:54.230Z,90.13
2018-12-08T07:35:38.082Z,90.20
2018-12-08T07:38:24.317Z,89.73
2018-12-08T07:41:07.041Z,88.89
2018-12-08T07:43:48.918Z,88.67
2018-12-08T07:46:31.046Z,88.11
2018-12-08T07:49:21.322Z,87.52
2018-12-08T07:52:09.401Z,87.81
2018-12-08T07:54:51.306Z,88.51
2018-12-08T07:57:33.072Z,88.22
2018-12-08T08:00:15.706Z,88.76
2018-12-08T08:02:58.082Z,89.19
2018-12-08T08:05:40.411Z,89.14
2018-12-08T08:08:22.902Z,88.87
2018-12-08T08:11:06.021Z,89.16
2018-12-08T08:13:48.415Z,88.86
2018-12-08T08:16:30.647Z,88.38
2018-12-08T08:19:13.130Z,89.59
2018-12-08T08:21:55.491Z,89.43
2018-12-08T08:24:37.965Z,89.21
2018-12-08T08:27:20.547Z,88.75
2018-12-08T08:30:03.487Z,90.12
2018-12-08T08:32:46.189Z,90.13
2018-12-08T08:35:28.494Z,89.86
2018-12-08T08:38:11.467Z,90.02
2018-12-08T08:40:53.606Z,89.72
2018-12-08T08:43:36.053Z,90.85
2018-12-08T08:46:18.546Z,90.19
2018-12-08T08:49:01.221Z,89.79
2018-12-08T08:51:44.079Z,90.03
2018-12-08T08:54:26.006Z,90.22
2018-12-08T08:57:07.665Z,89.50
2018-12-08T08:59:49.366Z,89.92
2018-12-08T09:02:31.766Z,90.20
2018-12-08T09:05:15.297Z,90.13
2018-12-08T09:07:57.806Z,90.14
2018-12-08T09:10:40.046Z,90.07
2018-12-08T09:13:21.691Z,90.87
2018-12-08T09:16:04.356Z,89.33
2018-12-08T09:18:47.191Z,89.75
2018-12-08T09:21:29.516Z,89.88
2018-12-08T09:24:11.950Z,89.93
2018-12-08T09:26:55.299Z,90.60
2018-12-08T09:29:37.678Z,90.80
2018-12-08T09:32:19.181Z,91.11
2018-12-08T09:35:00.858Z,91.49
2018-12-08T09:37:43.515Z,92.66
2018-12-08T09:40:25.487Z,94.22
2018-12-08T09:43:06.870Z,93.94
2018-12-08T09:45:48.677Z,94.10
2018-12-08T09:48:31.151Z,93.60
2018-12-08T09:51:13.821Z,94.03
2018-12-08T09:53:56.158Z,93.32
2018-12-08T09:56:38.512Z,92.96
2018-12-08T09:59:21.340Z,92.72
2018-12-08T10:02:04.177Z,92.59
2018-12-08T10:04:46.480Z,93.08
2018-12-08T10:07:29.197Z,93.25
2018-12-08T10:10:11.625Z,93.69
2018-12-08T10:12:53.827Z,93.69
2018-12-08T10:15:36.624Z,93.56
2018-12-08T10:18:18.935Z,94.68
2018-12-08T10:21:01.856Z,95.35
2018-12-08T10:23:43.589Z,96.08
2018-12-08T10:26:25.973Z,95.53
2018-12-08T10:29:08.073Z,95.36
2018-12-08T10:31:50.871Z,95.30
2018-12-08T10:34:32.893Z,95.69
2018-12-08T10:37:15.779Z,95.78
2018-12-08T10:39:57.982Z,95.72
2018-12-08T10:42:40.466Z,96.21
2018-12-08T10:45:23.206Z,95.75
2018-12-08T10:48:05.945Z,95.16
2018-12-08T10:50:48.353Z,95.78
2018-12-08T10:53:30.491Z,95.33
2018-12-08T10:56:12.910Z,95.57
2018-12-08T10:58:55.857Z,95.74
2018-12-08T11:01:43.691Z,95.70
2018-12-08T11:04:25.257Z,95.20
2018-12-08T11:07:08.919Z,95.22
2018-12-08T11:09:51.565Z,94.78
2018-12-08T11:12:33.898Z,94.03
2018-12-08T11:15:16.419Z,94.03
2018-12-08T11:17:58.289Z,93.57
2018-12-08T11:20:40.613Z,93.21
2018-12-08T11:23:23.097Z,93.37
2018-12-08T11:26:05.496Z,93.69
2018-12-08T11:28:59.444Z,92.94
2018-12-08T11:31:45.445Z,93.46
2018-12-08T11:34:26.982Z,93.08
2018-12-08T11:37:08.781Z,92.67
2018-12-08T11:39:50.916Z,93.11
2018-12-08T11:42:33.108Z,92.92
2018-12-08T11:45:15.321Z,93.28
2018-12-08T11:47:57.822Z,93.06
2018-12-08T11:50:41.670Z,92.89
2018-12-08T11:53:23.891Z,92.94
2018-12-08T11:56:06.205Z,93.22
2018-12-08T11:58:47.956Z,92.39
2018-12-08T12:01:30.132Z,92.53
2018-12-08T12:04:13.112Z,92.45
2018-12-08T12:06:56.942Z,92.46
2018-12-08T12:09:38.777Z,91.89
2018-12-08T12:12:22.177Z,91.42
2018-12-08T12:15:03.725Z,92.00
2018-12-08T12:17:46.298Z,92.70
2018-12-08T12:20:28.574Z,93.01
2018-12-08T12:23:10.297Z,93.99
2018-12-08T12:25:52.699Z,94.31
2018-12-08T12:28:35.089Z,95.22
2018-12-08T12:31:18.064Z,95.14
2018-12-08T12:34:00.537Z,95.34
2018-12-08T12:36:42.365Z,93.88
2018-12-08T12:39:24.541Z,93.02
2018-12-08T12:42:06.357Z,92.97
2018-12-08T12:44:48.738Z,92.10
2018-12-08T12:47:30.364Z,91.19
2018-12-08T12:50:12.923Z,90.84
2018-12-08T12:52:55.481Z,90.85
2018-12-08T12:55:38.424Z,89.74
2018-12-08T12:58:20.681Z,89.41
2018-12-08T13:01:03.170Z,89.83
2018-12-08T13:03:45.236Z,89.17
2018-12-08T13:06:27.451Z,89.45
2018-12-08T13:09:09.864Z,88.95
2018-12-08T13:11:52.250Z,88.90
2018-12-08T13:14:35.075Z,88.88
2018-12-08T13:17:16.902Z,86.71
2018-12-08T13:19:58.890Z,88.16
2018-12-08T13:22:41.814Z,87.85
2018-12-08T13:25:26.060Z,88.73
2018-12-08T13:28:08.613Z,88.84
2018-12-08T13:30:51.201Z,89.46
2018-12-08T13:33:40.062Z,89.87
2018-12-08T13:36:22.164Z,90.60
2018-12-08T13:39:04.844Z,91.65
2018-12-08T13:41:46.926Z,91.09
2018-12-08T13:44:40.253Z,90.87
2018-12-08T13:47:22.427Z,91.33
2018-12-08T13:50:05.131Z,91.07
2018-12-08T13:52:47.781Z,90.14
2018-12-08T13:55:30.194Z,90.63
2018-12-08T13:58:12.526Z,90.33
2018-12-08T14:00:55.581Z,89.43
2018-12-08T14:03:37.792Z,89.34
2018-12-08T14:06:20.133Z,89.81
2018-12-08T14:09:02.677Z,90.22
2018-12-08T14:11:45.232Z,90.00
2018-12-08T14:14:27.830Z,91.90
2018-12-08T14:17:09.939Z,92.17
2018-12-08T14:19:52.362Z,91.68
2018-12-08T14:22:35.099Z,92.04
2018-12-08T14:25:18.168Z,91.04
2018-12-08T14:28:01.546Z,91.55
2018-12-08T14:30:44.209Z,91.50
2018-12-08T14:33:26.598Z,91.03
2018-12-08T14:36:09.436Z,90.38
2018-12-08T14:38:57.396Z,90.62
2018-12-08T14:41:36.113Z,90.44
2018-12-08T14:44:18.997Z,90.92
2018-12-08T14:47:01.290Z,92.02
2018-12-08T14:49:43.657Z,91.60
2018-12-08T14:52:26.260Z,91.59
2018-12-08T14:55:09.536Z,91.42
2018-12-08T14:57:55.279Z,90.80
2018-12-08T15:00:37.418Z,90.69
2018-12-08T15:03:19.554Z,90.71
2018-12-08T15:06:01.459Z,90.12
2018-12-08T15:08:43.346Z,89.79
2018-12-08T15:11:25.406Z,89.78
2018-12-08T15:14:07.263Z,89.98
2018-12-08T15:16:49.273Z,90.50
2018-12-08T15:19:32.769Z,89.54
2018-12-08T15:22:18.021Z,89.99
2018-12-08T15:25:00.462Z,89.99
2018-12-08T15:27:42.978Z,90.00
2018-12-08T15:30:26.550Z,89.05
2018-12-08T15:33:09.312Z,88.81
2018-12-08T15:35:51.929Z,88.03
2018-12-08T15:38:33.771Z,87.62
2018-12-08T15:41:15.213Z,88.37
2018-12-08T15:43:57.584Z,88.68
2018-12-08T15:46:39.922Z,88.18
2018-12-08T15:49:21.870Z,88.80
2018-12-08T15:52:03.460Z,89.46
2018-12-08T15:54:49.426Z,89.38
2018-12-08T15:57:31.765Z,89.94
2018-12-08T16:00:14.600Z,89.68
2018-12-08T16:02:57.211Z,89.56
2018-12-08T16:05:39.415Z,89.54
2018-12-08T16:08:22.309Z,89.91
2018-12-08T16:11:04.474Z,90.31
2018-12-08T16:13:46.282Z,90.86
2018-12-08T16:16:28.678Z,89.77
2018-12-08T16:19:12.496Z,89.88
2018-12-08T16:21:54.551Z,89.42
2018-12-08T16:24:36.355Z,89.20
2018-12-08T16:27:19.350Z,88.69
2018-12-08T16:30:01.134Z,88.70
2018-12-08T16:32:43.447Z,88.27
2018-12-08T16:35:25.474Z,87.79
2018-12-08T16:38:09.041Z,87.79
2018-12-08T16:40:51.302Z,87.44
2018-12-08T16:43:33.244Z,87.65
2018-12-08T16:46:16.279Z,86.45
2018-12-08T16:48:57.785Z,86.07
2018-12-08T16:51:39.881Z,85.94
2018-12-08T16:54:22.972Z,86.33
2018-12-08T16:57:04.825Z,85.91
2018-12-08T16:59:46.489Z,85.47
2018-12-08T17:02:29.087Z,84.65
2018-12-08T17:05:12.911Z,84.24
2018-12-08T17:07:57.726Z,84.69
2018-12-08T17:10:40.393Z,84.48
2018-12-08T17:13:21.959Z,84.56
2018-12-08T17:16:04.393Z,84.68
2018-12-08T17:18:46.996Z,84.30
2018-12-08T17:21:28.493Z,83.87
2018-12-08T17:24:10.425Z,83.72
2018-12-08T17:26:55.863Z,83.99
2018-12-08T17:29:38.252Z,83.86
2018-12-08T17:32:19.901Z,83.55
2018-12-08T17:35:01.510Z,83.11
2018-12-08T17:37:43.585Z,82.10
2018-12-08T17:40:26.065Z,82.23
2018-12-08T17:43:07.796Z,82.02
2018-12-08T17:45:49.508Z,82.39
2018-12-08T17:48:31.170Z,82.79
2018-12-08T17:51:12.723Z,82.40
2018-12-08T17:53:54.433Z,83.01
2018-12-08T17:56:36.846Z,83.09
2018-12-08T17:59:18.442Z,81.84
2018-12-08T18:02:01.318Z,82.00
2018-12-08T18:04:44.652Z,80.95
2018-12-08T18:07:26.381Z,81.73
2018-12-08T18:10:08.471Z,81.23
2018-12-08T18:12:50.578Z,81.73
2018-12-08T18:15:33.462Z,81.33
2018-12-08T18:18:17.307Z,82.03
2018-12-08T18:21:00.479Z,82.49
2018-12-08T18:23:43.293Z,81.84
2018-12-08T18:26:26.116Z,82.38
2018-12-08T18:29:08.199Z,82.56
2018-12-08T18:31:50.603Z,82.96
2018-12-08T18:34:33.691Z,83.64
2018-12-08T18:37:15.521Z,83.79
2018-12-08T18:39:57.102Z,84.18
2018-12-08T18:42:39.331Z,86.04
2018-12-08T18:45:21.566Z,86.88
2018-12-08T18:48:04.576Z,86.67
2018-12-08T18:50:46.333Z,86.72
2018-12-08T18:53:28.947Z,87.71
2018-12-08T18:56:11.335Z,89.32
2018-12-08T18:58:52.875Z,91.05
2018-12-08T19:01:36.010Z,92.26
2018-12-08T19:04:17.775Z,92.92
2018-12-08T19:07:01.579Z,93.30
2018-12-08T19:09:44.182Z,93.83
2018-12-08T19:12:26.444Z,94.17
2018-12-08T19:15:08.880Z,93.70
2018-12-08T19:17:50.720Z,94.28
2018-12-08T19:20:33.995Z,94.16
2018-12-08T19:23:15.558Z,94.47
2018-12-08T19:25:57.285Z,94.44
2018-12-08T19:28:39.441Z,94.52
2018-12-08T19:31:21.338Z,93.59
2018-12-08T19:34:04.021Z,93.58
2018-12-08T19:36:46.999Z,94.01
2018-12-08T19:39:29.430Z,94.66
2018-12-08T19:42:11.386Z,95.61
2018-12-08T19:44:54.061Z,95.81
2018-12-08T19:47:36.306Z,96.41
2018-12-08T19:50:19.089Z,96.54
2018-12-08T19:53:01.425Z,96.78
2018-12-08T19:55:44.057Z,96.51
2018-12-08T19:58:26.544Z,96.60
2018-12-08T20:01:09.483Z,96.07
2018-12-08T20:03:52.401Z,96.07
2018-12-08T20:06:34.808Z,96.00
2018-12-08T20:09:17.223Z,95.95
2018-12-08T20:12:00.178Z,95.80
2018-12-08T20:14:42.701Z,95.74
2018-12-08T20:17:25.483Z,95.73
2018-12-08T20:20:08.093Z,96.20
2018-12-08T20:22:51.199Z,96.91
2018-12-08T20:25:34.583Z,97.17
2018-12-08T20:28:18.829Z,97.42
2018-12-08T20:31:01.214Z,96.77
2018-12-08T20:33:43.920Z,96.79
2018-12-08T20:36:25.782Z,97.07
2018-12-08T20:39:08.737Z,96.99
2018-12-08T20:41:51.298Z,96.76
2018-12-08T20:44:33.855Z,96.83
2018-12-08T20:47:16.247Z,96.93
2018-12-08T20:49:59.908Z,97.01
2018-12-08T20:52:41.647Z,96.86
2018-12-08T20:55:27.098Z,96.84
2018-12-08T20:58:08.908Z,97.36
2018-12-08T21:00:51.029Z,97.25
2018-12-08T21:03:33.577Z,97.51
2018-12-08T21:06:15.719Z,96.38
2018-12-08T21:08:58.866Z,96.29
2018-12-08T21:11:40.918Z,95.78
2018-12-08T21:14:22.633Z,95.81
2018-12-08T21:17:05.035Z,96.42
2018-12-08T21:19:47.121Z,97.17
2018-12-08T21:22:30.020Z,97.25
2018-12-08T21:25:11.931Z,96.80
2018-12-08T21:27:54.282Z,96.98
2018-12-08T21:30:35.804Z,96.44
2018-12-08T21:33:17.428Z,96.51
2018-12-08T21:35:59.589Z,95.77
2018-12-08T21:38:41.318Z,96.12
2018-12-08T21:41:23.798Z,95.54
2018-12-08T21:44:06.162Z,95.48
2018-12-08T21:46:48.665Z,95.79
2018-12-08T21:49:30.713Z,95.59
2018-12-08T21:52:12.539Z,95.12
2018-12-08T21:54:54.305Z,94.25
2018-12-08T21:57:36.115Z,93.40
2018-12-08T22:00:18.446Z,93.36
2018-12-08T22:03:00.225Z,93.95
2018-12-08T22:05:42.586Z,93.63
2018-12-08T22:08:24.334Z,93.88
2018-12-08T22:11:06.826Z,93.93
2018-12-08T22:13:48.594Z,95.36
2018-12-08T22:16:31.135Z,95.08
2018-12-08T22:19:13.004Z,94.62
2018-12-08T22:21:54.793Z,94.28
2018-12-08T22:24:36.992Z,94.35
2018-12-08T22:27:19.689Z,93.93
2018-12-08T22:30:02.006Z,94.29
2018-12-08T22:32:44.219Z,93.69
2018-12-08T22:35:25.699Z,93.82
2018-12-08T22:38:07.521Z,93.91
2018-12-08T22:40:50.062Z,93.33
2018-12-08T22:43:33.510Z,93.27
2018-12-08T22:46:16.254Z,93.42
2018-12-08T22:48:58.450Z,92.55
2018-12-08T22:51:40.611Z,92.25
2018-12-08T22:54:22.495Z,91.97
2018-12-08T22:57:05.276Z,92.08
2018-12-08T22:59:47.509Z,91.84
2018-12-08T23:02:29.491Z,91.39
2018-12-08T23:05:12.369Z,91.02
2018-12-08T23:07:54.690Z,90.76
2018-12-08T23:10:37.604Z,89.90
2018-12-08T23:13:19.245Z,89.27
2018-12-08T23:16:02.465Z,89.94
2018-12-08T23:18:44.530Z,89.90
2018-12-08T23:21:27.450Z,89.82
2018-12-08T23:24:09.149Z,90.23
2018-12-08T23:26:55.622Z,90.60
2018-12-08T23:29:37.196Z,90.21
2018-12-08T23:32:19.757Z,89.60
2018-12-08T23:35:02.457Z,89.52
2018-12-08T23:37:44.057Z,88.86
2018-12-08T23:40:26.637Z,88.64
2018-12-08T23:43:09.692Z,89.07
2018-12-08T23:45:51.535Z,89.05
2018-12-08T23:48:33.985Z,88.48
2018-12-08T23:51:16.280Z,91.01
2018-12-08T23:53:58.725Z,92.81
2018-12-08T23:56:41.254Z,94.09
2018-12-08T23:59:23.795Z,95.22
